createdAt,value
2023-03-13T00:01:45.413Z,14.40
2023-03-13T00:04:12.676Z,15.73
2023-03-13T00:06:41.263Z,14.63
2023-03-13T00:09:12.657Z,14.23
2023-03-13T00:11:40.402Z,20.25
2023-03-13T00:14:09.053Z,18.25
2023-03-13T00:16:37.787Z,13.40
2023-03-13T00:19:09.993Z,18.47
2023-03-13T00:21:38.357Z,19.30
2023-03-13T00:24:05.725Z,15.30
2023-03-13T00:26:32.999Z,18.30
2023-03-13T00:29:00.974Z,17.63
2023-03-13T00:31:32.554Z,18.80
2023-03-13T00:34:03.623Z,15.27
2023-03-13T00:36:35.230Z,17.98
2023-03-13T00:39:05.359Z,25.17
2023-03-13T00:41:38.266Z,19.55
2023-03-13T00:44:06.287Z,18.67
2023-03-13T00:46:33.844Z,17.38
2023-03-13T00:49:01.165Z,22.95
2023-03-13T00:51:29.226Z,20.35
2023-03-13T00:54:01.629Z,15.07
2023-03-13T00:56:30.113Z,20.38
2023-03-13T00:58:57.779Z,18.98
2023-03-13T01:01:30.990Z,24.15
2023-03-13T01:04:06.125Z,18.58
2023-03-13T01:06:40.633Z,19.17
2023-03-13T01:09:10.308Z,12.82
2023-03-13T01:11:40.725Z,21.83
2023-03-13T01:14:18.781Z,18.63
2023-03-13T01:21:45.000Z,19.33
2023-03-13T01:24:13.373Z,17.33
2023-03-13T01:26:56.027Z,24.13
2023-03-13T01:29:24.280Z,16.08
2023-03-13T01:31:51.591Z,24.80
2023-03-13T01:34:19.559Z,14.25
2023-03-13T01:36:50.886Z,27.38
2023-03-13T01:46:30.326Z,17.55
2023-03-13T01:49:19.649Z,14.63
2023-03-13T01:52:19.013Z,16.00
2023-03-13T01:55:16.188Z,16.02
2023-03-13T01:57:55.031Z,22.92
2023-03-13T02:00:33.014Z,22.60
2023-03-13T02:03:09.320Z,17.73
2023-03-13T02:05:37.769Z,18.02
2023-03-13T02:08:11.058Z,13.52
2023-03-13T02:10:51.677Z,16.50
2023-03-13T02:13:33.923Z,13.43
2023-03-13T02:16:34.782Z,21.13
2023-03-13T02:19:24.590Z,23.13
2023-03-13T02:22:06.169Z,20.92
2023-03-13T02:24:56.169Z,12.93
2023-03-13T02:27:28.150Z,21.93
2023-03-13T02:29:56.016Z,19.85
2023-03-13T02:32:29.463Z,13.65
2023-03-13T02:35:06.667Z,21.45
2023-03-13T02:37:34.654Z,16.75
2023-03-13T02:40:14.757Z,17.08
2023-03-13T02:42:46.113Z,18.00
2023-03-13T02:45:18.132Z,21.20
2023-03-13T02:47:45.646Z,16.17
2023-03-13T02:50:14.674Z,22.17
2023-03-13T02:52:51.172Z,19.13
2023-03-13T02:55:35.285Z,21.85
2023-03-13T02:58:03.229Z,22.20
2023-03-13T03:00:35.887Z,16.27
2023-03-13T03:03:03.471Z,13.95
2023-03-13T03:05:35.159Z,28.05
2023-03-13T03:08:05.390Z,16.60
2023-03-13T03:10:32.603Z,16.02
2023-03-13T03:13:00.159Z,25.02
2023-03-13T03:15:27.456Z,12.00
2023-03-13T03:17:54.655Z,17.75
2023-03-13T03:20:22.462Z,21.33
2023-03-13T03:22:51.504Z,13.05
2023-03-13T03:25:22.294Z,27.58
2023-03-13T03:27:50.582Z,25.50
2023-03-13T03:30:18.672Z,26.15
2023-03-13T03:32:46.659Z,18.42
2023-03-13T03:35:13.962Z,19.88
2023-03-13T03:37:41.324Z,22.27
2023-03-13T03:40:11.017Z,16.00
2023-03-13T03:42:38.436Z,20.63
2023-03-13T03:45:06.935Z,15.30
2023-03-13T03:47:38.077Z,22.85
2023-03-13T03:52:44.383Z,18.92
2023-03-13T03:55:12.632Z,18.70
2023-03-13T03:57:40.313Z,15.68
2023-03-13T04:00:15.898Z,20.85
2023-03-13T04:02:49.583Z,20.60
2023-03-13T04:05:20.175Z,14.27
2023-03-13T04:07:51.032Z,21.38
2023-03-13T04:10:18.588Z,18.02
2023-03-13T04:12:46.490Z,21.05
2023-03-13T04:15:14.138Z,20.25
2023-03-13T04:17:44.792Z,23.45
2023-03-13T04:20:16.192Z,22.17
2023-03-13T04:22:44.801Z,21.70
2023-03-13T04:25:15.724Z,20.95
2023-03-13T04:27:46.490Z,19.33
2023-03-13T04:30:18.307Z,15.43
2023-03-13T04:33:04.696Z,16.88
2023-03-13T04:35:33.224Z,31.50
2023-03-13T04:38:18.274Z,23.15
2023-03-13T04:40:54.433Z,16.25
2023-03-13T04:43:34.130Z,18.48
2023-03-13T04:46:14.819Z,24.13
2023-03-13T04:49:00.945Z,16.35
2023-03-13T04:51:57.509Z,22.75
2023-03-13T04:54:39.002Z,19.70
2023-03-13T04:57:38.500Z,14.20
2023-03-13T05:00:19.003Z,26.90
2023-03-13T05:03:05.603Z,14.68
2023-03-13T05:05:46.377Z,15.18
2023-03-13T05:08:41.528Z,24.02
2023-03-13T05:11:37.746Z,18.98
2023-03-13T05:14:27.956Z,21.20
2023-03-13T05:17:13.985Z,21.77
2023-03-13T05:19:59.809Z,22.20
2023-03-13T05:22:50.118Z,16.35
2023-03-13T05:25:33.368Z,16.75
2023-03-13T05:28:15.746Z,22.98
2023-03-13T05:30:57.396Z,20.92
2023-03-13T05:33:45.001Z,22.05
2023-03-13T05:36:25.608Z,13.85
2023-03-13T05:39:11.229Z,16.02
2023-03-13T05:41:55.782Z,17.63
2023-03-13T05:45:01.116Z,16.02
2023-03-13T05:48:06.545Z,19.65
2023-03-13T05:50:52.899Z,11.75
2023-03-13T05:53:32.657Z,14.82
2023-03-13T05:56:36.040Z,13.48
2023-03-13T05:59:14.584Z,16.55
2023-03-13T06:02:21.067Z,23.05
2023-03-13T06:04:49.527Z,19.88
2023-03-13T06:11:35.147Z,12.05
2023-03-13T06:14:05.166Z,20.25
2023-03-13T06:16:38.670Z,12.98
2023-03-13T06:19:19.324Z,15.60
2023-03-13T06:21:47.103Z,20.08
2023-03-13T06:24:14.690Z,15.48
2023-03-13T06:26:43.359Z,13.10
2023-03-13T06:29:11.858Z,18.00
2023-03-13T06:31:41.879Z,21.65
2023-03-13T06:34:13.176Z,21.58
2023-03-13T06:36:47.895Z,12.98
2023-03-13T06:39:15.160Z,14.77
2023-03-13T06:41:45.570Z,16.05
2023-03-13T06:44:13.283Z,12.32
2023-03-13T06:46:48.220Z,19.83
2023-03-13T06:49:16.023Z,9.57
2023-03-13T06:52:02.944Z,15.25
2023-03-13T06:54:33.038Z,12.98
2023-03-13T06:57:26.438Z,10.73
2023-03-13T07:03:32.011Z,11.98
2023-03-13T07:06:00.591Z,10.68
2023-03-13T07:08:28.897Z,12.02
2023-03-13T07:11:03.005Z,10.45
2023-03-13T07:13:35.884Z,10.23
2023-03-13T07:16:59.196Z,9.43
2023-03-13T07:19:28.945Z,12.13
2023-03-13T07:22:54.168Z,13.05
2023-03-13T07:25:21.822Z,5.88
2023-03-13T07:28:16.223Z,8.23
2023-03-13T07:30:53.085Z,11.48
2023-03-13T07:33:46.998Z,12.65
2023-03-13T07:36:18.924Z,12.68
2023-03-13T07:39:47.268Z,12.70
2023-03-13T07:42:15.007Z,15.68
2023-03-13T07:48:34.612Z,12.48
2023-03-13T07:51:13.060Z,12.50
2023-03-13T07:54:41.258Z,13.68
2023-03-13T07:57:33.205Z,9.27
2023-03-13T08:00:02.732Z,10.20
2023-03-13T08:02:39.629Z,10.23
2023-03-13T08:06:26.276Z,11.90
2023-03-13T08:12:14.253Z,10.38
2023-03-13T08:14:42.492Z,10.82
2023-03-13T08:17:34.581Z,12.93
2023-03-13T08:20:27.161Z,11.50
2023-03-13T08:23:02.125Z,7.10
2023-03-13T08:26:04.707Z,10.45
2023-03-13T08:29:21.636Z,9.82
2023-03-13T08:31:53.737Z,8.40
2023-03-13T08:34:25.010Z,15.02
2023-03-13T08:37:04.468Z,8.48
2023-03-13T08:39:36.086Z,9.88
2023-03-13T08:42:30.532Z,7.97
2023-03-13T08:45:02.379Z,7.82
2023-03-13T08:47:42.681Z,8.88
2023-03-13T08:50:37.614Z,10.65
2023-03-13T08:53:08.120Z,9.93
2023-03-13T08:55:36.925Z,8.93
2023-03-13T09:06:15.300Z,11.40
2023-03-13T09:08:45.621Z,6.97
2023-03-13T09:11:20.969Z,6.57
2023-03-13T09:24:03.851Z,6.10
2023-03-13T09:31:41.915Z,11.02
2023-03-13T09:34:12.797Z,4.90
2023-03-13T09:36:49.702Z,5.15
2023-03-13T09:39:17.598Z,6.50
2023-03-13T09:53:28.523Z,8.32
2023-03-13T09:56:19.235Z,4.60
2023-03-13T09:59:17.818Z,3.40
2023-03-13T10:01:50.511Z,2.67
2023-03-13T10:04:47.944Z,5.90
2023-03-13T10:12:06.045Z,2.03
2023-03-13T10:14:44.430Z,3.30
2023-03-13T10:17:30.334Z,2.58
2023-03-13T10:20:27.844Z,4.47
2023-03-13T10:23:59.010Z,3.92
2023-03-13T10:26:34.486Z,3.03
2023-03-13T10:49:57.900Z,1.50
2023-03-13T10:52:48.439Z,8.70
2023-03-13T11:04:37.946Z,5.15
2023-03-13T11:07:16.453Z,1.80
2023-03-13T11:09:52.700Z,2.95
2023-03-13T11:12:24.172Z,10.65
2023-03-13T11:15:02.144Z,7.32
2023-03-13T11:17:39.654Z,5.13
2023-03-13T11:21:31.109Z,4.10
2023-03-13T11:24:46.467Z,2.30
2023-03-13T11:27:43.517Z,1.80
2023-03-13T11:30:26.213Z,2.10
2023-03-13T11:33:02.287Z,6.32
2023-03-13T11:36:01.094Z,3.47
2023-03-13T11:38:43.925Z,15.65
2023-03-13T11:41:43.113Z,4.82
2023-03-13T11:44:58.065Z,2.63
2023-03-13T11:47:49.144Z,4.43
2023-03-13T11:50:33.584Z,1.83
2023-03-13T11:53:26.029Z,5.38
2023-03-13T11:56:10.776Z,4.43
2023-03-13T11:59:05.758Z,2.97
2023-03-13T12:01:45.532Z,1.85
2023-03-13T12:04:41.034Z,2.45
2023-03-13T12:07:43.203Z,5.03
2023-03-13T12:10:18.162Z,1.65
2023-03-13T12:12:57.048Z,1.60
2023-03-13T12:15:38.458Z,5.18
2023-03-13T12:18:31.790Z,8.70
2023-03-13T12:21:05.070Z,4.57
2023-03-13T12:24:15.080Z,3.03
2023-03-13T12:27:11.064Z,1.48
2023-03-13T12:30:14.958Z,4.63
2023-03-13T12:33:25.602Z,8.25
2023-03-13T12:37:31.887Z,2.15
2023-03-13T12:40:12.481Z,18.92
2023-03-13T12:43:02.509Z,2.85
2023-03-13T12:45:30.724Z,2.33
2023-03-13T12:48:46.588Z,2.30
2023-03-13T12:51:49.361Z,1.70
2023-03-13T12:55:08.781Z,1.30
2023-03-13T12:58:26.361Z,4.43
2023-03-13T13:01:04.285Z,0.85
2023-03-13T13:03:48.688Z,3.15
2023-03-13T13:11:35.641Z,5.72
2023-03-13T13:14:24.398Z,2.65
2023-03-13T13:17:16.410Z,1.85
2023-03-13T13:19:47.469Z,1.73
2023-03-13T13:22:41.258Z,3.97
2023-03-13T13:25:12.002Z,1.50
2023-03-13T13:27:39.164Z,10.73
2023-03-13T13:30:18.600Z,2.70
2023-03-13T13:33:16.584Z,1.13
2023-03-13T13:35:45.792Z,1.35
2023-03-13T13:38:30.186Z,4.00
2023-03-13T13:41:10.076Z,2.83
2023-03-13T13:52:03.864Z,1.67
2023-03-13T13:54:45.465Z,1.95
2023-03-13T13:57:20.920Z,4.07
2023-03-13T14:00:21.270Z,7.97
2023-03-13T14:02:57.596Z,4.07
2023-03-13T14:05:32.581Z,2.67
2023-03-13T14:08:23.315Z,1.48
2023-03-13T14:11:28.124Z,1.40
2023-03-13T14:14:18.109Z,4.97
2023-03-13T14:17:11.940Z,7.53
2023-03-13T14:23:56.142Z,2.67
2023-03-13T14:26:29.334Z,2.58
2023-03-13T14:29:02.838Z,1.42
2023-03-13T14:31:38.448Z,2.97
2023-03-13T14:34:17.862Z,1.52
2023-03-13T14:37:17.663Z,1.83
2023-03-13T14:39:48.822Z,2.00
2023-03-13T14:42:18.840Z,24.75
2023-03-13T14:44:59.589Z,2.42
2023-03-13T14:47:43.951Z,3.35
2023-03-13T14:50:16.365Z,2.38
2023-03-13T14:53:15.184Z,5.15
2023-03-13T14:57:20.933Z,3.28
2023-03-13T15:03:48.620Z,4.15
2023-03-13T15:06:39.596Z,2.92
2023-03-13T15:09:52.394Z,7.70
2023-03-13T15:12:28.173Z,7.35
2023-03-13T15:18:37.020Z,2.75
2023-03-13T15:21:10.935Z,3.58
2023-03-13T15:23:38.681Z,4.97
2023-03-13T15:31:58.015Z,8.70
2023-03-13T15:34:29.356Z,1.10
2023-03-13T15:37:01.814Z,1.95
2023-03-13T15:39:30.006Z,3.08
2023-03-13T15:42:17.388Z,1.92
2023-03-13T15:44:45.283Z,1.50
2023-03-13T15:47:23.071Z,2.45
2023-03-13T15:49:51.632Z,2.83
2023-03-13T15:53:01.621Z,4.10
2023-03-13T15:55:36.568Z,4.18
2023-03-13T15:58:04.318Z,9.02
2023-03-13T16:00:31.700Z,3.33
2023-03-13T16:03:00.666Z,3.25
2023-03-13T16:05:29.481Z,1.90
2023-03-13T16:07:57.572Z,3.08
2023-03-13T16:10:29.775Z,2.78
2023-03-13T16:15:48.059Z,4.20
2023-03-13T16:18:28.352Z,4.60
2023-03-13T16:21:31.505Z,3.05
2023-03-13T16:24:28.621Z,2.58
2023-03-13T16:26:56.683Z,2.55
2023-03-13T16:32:32.677Z,4.25
2023-03-13T16:39:45.206Z,5.68
2023-03-13T16:42:13.935Z,5.75
2023-03-13T16:44:41.910Z,3.00
2023-03-13T16:47:32.750Z,4.30
2023-03-13T16:50:01.232Z,3.58
2023-03-13T16:52:29.588Z,2.45
2023-03-13T16:54:58.444Z,2.88
2023-03-13T16:57:27.026Z,6.90
2023-03-13T17:00:18.123Z,3.33
2023-03-13T17:02:46.051Z,3.13
2023-03-13T17:05:16.619Z,3.13
2023-03-13T17:07:48.763Z,1.98
2023-03-13T17:10:20.392Z,7.50
2023-03-13T17:12:48.734Z,3.50
2023-03-13T17:15:17.196Z,6.65
2023-03-13T17:17:51.806Z,5.95
2023-03-13T17:20:30.429Z,5.35
2023-03-13T17:23:01.850Z,3.30
2023-03-13T17:25:30.018Z,5.15
2023-03-13T17:27:58.695Z,3.78
2023-03-13T17:30:31.411Z,6.35
2023-03-13T17:36:57.121Z,6.97
2023-03-13T17:39:25.761Z,3.55
2023-03-13T17:42:21.603Z,2.08
2023-03-13T17:44:49.447Z,3.33
2023-03-13T17:47:23.850Z,4.85
2023-03-13T17:49:54.198Z,7.50
2023-03-13T17:52:22.048Z,3.47
2023-03-13T17:54:50.169Z,4.70
2023-03-13T17:57:22.096Z,5.47
2023-03-13T17:59:49.987Z,4.75
2023-03-13T18:02:19.521Z,6.80
2023-03-13T18:04:49.234Z,4.25
2023-03-13T18:07:26.967Z,5.18
2023-03-13T18:09:54.847Z,8.27
2023-03-13T18:12:23.030Z,5.22
2023-03-13T18:14:51.267Z,9.13
2023-03-13T18:17:26.767Z,6.75
2023-03-13T18:19:54.589Z,8.55
2023-03-13T18:22:31.038Z,6.00
2023-03-13T18:24:59.045Z,4.32
2023-03-13T18:27:34.629Z,6.50
2023-03-13T18:30:02.060Z,4.97
2023-03-13T18:32:31.156Z,5.72
2023-03-13T18:34:58.663Z,3.88
2023-03-13T18:37:31.209Z,6.47
2023-03-13T18:40:00.867Z,4.97
2023-03-13T18:42:29.275Z,7.53
2023-03-13T18:44:57.922Z,7.57
2023-03-13T18:47:37.131Z,5.57
2023-03-13T18:50:31.797Z,4.07
2023-03-13T18:53:01.429Z,5.60
2023-03-13T18:55:31.569Z,3.60
2023-03-13T18:58:00.964Z,4.68
2023-03-13T19:00:31.868Z,3.67
2023-03-13T19:03:02.945Z,11.35
2023-03-13T19:05:30.908Z,8.10
2023-03-13T19:07:58.445Z,3.75
2023-03-13T19:10:31.842Z,4.85
2023-03-13T19:12:59.754Z,5.38
2023-03-13T19:15:32.243Z,5.10
2023-03-13T19:20:34.111Z,5.20
2023-03-13T19:26:45.898Z,5.13
2023-03-13T19:29:25.945Z,7.50
2023-03-13T19:31:55.612Z,5.25
2023-03-13T19:34:36.465Z,11.32
2023-03-13T19:37:04.314Z,4.50
2023-03-13T19:39:32.269Z,6.28
2023-03-13T19:42:00.132Z,4.97
2023-03-13T19:47:41.225Z,3.10
2023-03-13T19:50:21.332Z,4.78
2023-03-13T19:52:49.630Z,4.93
2023-03-13T19:55:17.933Z,7.70
2023-03-13T19:57:48.431Z,5.90
2023-03-13T20:00:26.423Z,7.00
2023-03-13T20:02:58.330Z,7.85
2023-03-13T20:05:32.612Z,5.35
2023-03-13T20:08:01.065Z,5.65
2023-03-13T20:10:30.288Z,3.28
2023-03-13T20:12:59.491Z,3.17
2023-03-13T20:15:45.539Z,6.25
2023-03-13T20:18:14.356Z,3.28
2023-03-13T20:26:14.526Z,4.90
2023-03-13T20:28:47.264Z,2.95
2023-03-13T20:31:21.075Z,3.60
2023-03-13T20:33:50.642Z,2.45
2023-03-13T20:36:25.351Z,2.05
2023-03-13T20:38:54.362Z,2.47
2023-03-13T20:44:33.656Z,5.70
2023-03-13T20:48:18.041Z,4.22
2023-03-13T20:50:53.858Z,2.25
2023-03-13T20:53:25.594Z,1.60
2023-03-13T20:55:57.199Z,2.30
2023-03-13T20:58:27.151Z,3.47
2023-03-13T21:01:00.214Z,2.45
2023-03-13T21:03:30.288Z,4.22
2023-03-13T21:05:58.014Z,2.67
2023-03-13T21:08:30.078Z,1.92
2023-03-13T21:10:58.460Z,2.70
2023-03-13T21:13:29.845Z,3.30
2023-03-13T21:16:02.637Z,2.65
2023-03-13T21:32:22.703Z,2.72
2023-03-13T21:34:52.203Z,5.78
2023-03-13T21:37:22.414Z,3.25
2023-03-13T21:40:32.288Z,2.67
2023-03-13T21:43:01.155Z,3.10
2023-03-13T21:45:31.042Z,4.07
2023-03-13T21:48:02.161Z,3.38
2023-03-13T21:54:48.092Z,2.30
2023-03-13T22:00:50.983Z,2.90
2023-03-13T22:04:00.751Z,1.90
2023-03-13T22:09:37.875Z,2.47
2023-03-13T22:12:06.812Z,1.83
2023-03-13T22:14:38.610Z,2.33
2023-03-13T22:17:08.449Z,3.15
2023-03-13T22:20:35.426Z,4.22
2023-03-13T22:23:33.688Z,4.07
2023-03-13T22:30:21.166Z,2.08
2023-03-13T22:33:22.612Z,3.42
2023-03-13T22:35:56.005Z,3.92
2023-03-13T22:38:32.714Z,4.82
2023-03-13T22:41:04.953Z,5.95
2023-03-13T22:43:39.881Z,5.28
2023-03-13T22:46:09.070Z,2.00
2023-03-13T22:52:04.897Z,2.53
2023-03-13T22:54:34.807Z,1.73
2023-03-13T22:57:56.244Z,3.22
2023-03-13T23:05:11.906Z,3.85
2023-03-13T23:07:41.481Z,3.38
2023-03-13T23:10:24.241Z,3.47
2023-03-13T23:12:53.156Z,5.38
2023-03-13T23:16:01.738Z,3.58
2023-03-13T23:18:29.922Z,3.22
2023-03-13T23:20:58.998Z,4.05
2023-03-13T23:23:31.071Z,3.13
2023-03-13T23:32:51.373Z,2.80
2023-03-13T23:54:27.880Z,2.97
